createdAt,value
2019-02-16T00:00:12.512Z,1.94
2019-02-16T00:01:12.503Z,1.91
2019-02-16T00:02:12.488Z,1.90
2019-02-16T00:03:12.477Z,1.85
2019-02-16T00:04:12.467Z,1.91
2019-02-16T00:05:12.449Z,1.94
2019-02-16T00:06:12.449Z,2.16
2019-02-16T00:07:12.437Z,2.10
2019-02-16T00:08:12.426Z,2.12
2019-02-16T00:09:12.416Z,2.10
2019-02-16T00:10:12.405Z,2.06
2019-02-16T00:11:12.391Z,2.16
2019-02-16T00:12:12.377Z,2.16
2019-02-16T00:13:12.387Z,2.17
2019-02-16T00:14:12.364Z,2.15
2019-02-16T00:15:12.351Z,2.19
2019-02-16T00:16:12.342Z,2.09
2019-02-16T00:17:12.328Z,2.12
2019-02-16T00:18:12.323Z,2.19
2019-02-16T00:19:12.324Z,2.27
2019-02-16T00:20:12.300Z,2.34
2019-02-16T00:21:12.290Z,2.45
2019-02-16T00:22:12.276Z,2.41
2019-02-16T00:23:12.270Z,2.44
2019-02-16T00:24:12.259Z,2.40
2019-02-16T00:25:12.251Z,2.40
2019-02-16T00:26:12.240Z,2.41
2019-02-16T00:27:12.231Z,2.40
2019-02-16T00:28:12.233Z,2.52
2019-02-16T00:29:12.208Z,2.44
2019-02-16T00:30:12.199Z,2.34
2019-02-16T00:31:12.207Z,2.30
2019-02-16T00:32:12.176Z,2.22
2019-02-16T00:33:12.167Z,2.20
2019-02-16T00:34:12.156Z,2.15
2019-02-16T00:35:12.146Z,2.08
2019-02-16T00:36:12.133Z,1.94
2019-02-16T00:37:12.130Z,1.89
2019-02-16T00:38:12.114Z,1.90
2019-02-16T00:39:14.039Z,1.73
2019-02-16T00:40:12.086Z,1.64
2019-02-16T00:41:12.080Z,1.61
2019-02-16T00:42:12.075Z,1.54
2019-02-16T00:43:12.072Z,1.55
2019-02-16T00:44:12.051Z,1.36
2019-02-16T00:45:12.041Z,1.33
2019-02-16T00:46:12.023Z,1.32
2019-02-16T00:47:12.020Z,1.22
2019-02-16T00:48:12.004Z,1.04
2019-02-16T00:49:12.000Z,1.07
2019-02-16T00:50:11.989Z,1.03
2019-02-16T00:51:13.933Z,1.00
2019-02-16T00:52:11.957Z,0.96
2019-02-16T00:53:11.956Z,0.98
2019-02-16T00:54:11.952Z,0.96
2019-02-16T00:55:11.936Z,0.96
2019-02-16T00:56:11.924Z,1.08
2019-02-16T00:57:11.914Z,1.06
2019-02-16T00:58:11.905Z,1.15
2019-02-16T00:59:11.894Z,1.04
2019-02-16T01:00:11.884Z,1.16
2019-02-16T01:01:11.863Z,1.14
2019-02-16T01:02:11.861Z,1.08
2019-02-16T01:03:11.852Z,1.04
2019-02-16T01:04:11.839Z,0.96
2019-02-16T01:05:11.832Z,0.89
2019-02-16T01:06:11.821Z,0.82
2019-02-16T01:07:11.808Z,0.80
2019-02-16T01:08:11.799Z,0.72
2019-02-16T01:09:11.786Z,0.67
2019-02-16T01:10:11.776Z,0.70
2019-02-16T01:11:11.764Z,0.61
2019-02-16T01:12:11.756Z,0.62
2019-02-16T01:13:11.741Z,0.64
2019-02-16T01:14:11.743Z,0.67
2019-02-16T01:15:11.724Z,0.83
2019-02-16T01:16:11.708Z,0.94
2019-02-16T01:17:11.699Z,0.85
2019-02-16T01:18:11.691Z,0.88
2019-02-16T01:19:11.678Z,0.89
2019-02-16T01:20:11.667Z,0.94
2019-02-16T01:21:11.656Z,0.96
2019-02-16T01:22:11.645Z,0.82
2019-02-16T01:23:11.634Z,0.75
2019-02-16T01:24:11.630Z,0.79
2019-02-16T01:25:11.616Z,0.92
2019-02-16T01:26:11.602Z,0.89
2019-02-16T01:27:11.589Z,0.96
2019-02-16T01:28:11.579Z,0.98
2019-02-16T01:29:11.613Z,0.97
2019-02-16T01:30:11.558Z,0.89
2019-02-16T01:31:11.545Z,0.78
2019-02-16T01:32:11.534Z,0.71
2019-02-16T01:33:11.527Z,0.70
2019-02-16T01:34:11.514Z,0.64
2019-02-16T01:35:11.500Z,0.49
2019-02-16T01:36:11.492Z,0.45
2019-02-16T01:37:11.482Z,0.31
2019-02-16T01:38:11.470Z,0.31
2019-02-16T01:39:11.459Z,0.31
2019-02-16T01:40:11.447Z,0.30
2019-02-16T01:41:11.438Z,0.23
2019-02-16T01:42:11.425Z,0.31
2019-02-16T01:43:11.416Z,0.31
2019-02-16T01:44:11.408Z,0.24
2019-02-16T01:45:11.392Z,0.02
2019-02-16T01:46:11.383Z,0.06
2019-02-16T01:47:11.376Z,-0.05
2019-02-16T01:48:11.360Z,-0.09
2019-02-16T01:49:11.348Z,-0.04
2019-02-16T01:50:11.337Z,0.05
2019-02-16T01:51:11.322Z,0.15
2019-02-16T01:52:11.315Z,0.16
2019-02-16T01:53:11.309Z,0.13
2019-02-16T01:54:11.293Z,0.09
2019-02-16T01:55:11.281Z,0.10
2019-02-16T01:56:11.266Z,0.09
2019-02-16T01:57:11.256Z,0.10
2019-02-16T01:58:11.250Z,0.13
2019-02-16T01:59:11.239Z,0.05
2019-02-16T02:00:11.228Z,-0.01
2019-02-16T02:01:11.214Z,-0.04
2019-02-16T02:02:11.203Z,-0.09
2019-02-16T02:03:11.190Z,-0.18
2019-02-16T02:04:11.183Z,-0.23
2019-02-16T02:05:11.170Z,-0.23
2019-02-16T02:06:11.159Z,-0.30
2019-02-16T02:07:11.147Z,-0.19
2019-02-16T02:08:11.139Z,-0.29
2019-02-16T02:09:12.269Z,-0.27
2019-02-16T02:10:11.112Z,-0.22
2019-02-16T02:11:11.103Z,-0.26
2019-02-16T02:12:11.092Z,-0.36
2019-02-16T02:13:11.071Z,-0.30
2019-02-16T02:14:11.065Z,-0.23
2019-02-16T02:15:11.058Z,-0.23
2019-02-16T02:16:11.044Z,-0.23
2019-02-16T02:17:11.037Z,-0.19
2019-02-16T02:18:11.026Z,-0.23
2019-02-16T02:19:12.560Z,-0.18
2019-02-16T02:20:11.000Z,-0.13
2019-02-16T02:21:10.991Z,-0.08
2019-02-16T02:22:10.982Z,-0.18
2019-02-16T02:23:10.966Z,-0.11
2019-02-16T02:24:10.962Z,-0.26
2019-02-16T02:25:10.944Z,-0.18
2019-02-16T02:26:10.925Z,-0.30
2019-02-16T02:27:10.928Z,-0.23
2019-02-16T02:28:10.911Z,-0.33
2019-02-16T02:29:10.899Z,-0.29
2019-02-16T02:30:10.907Z,-0.30
2019-02-16T02:31:10.877Z,-0.19
2019-02-16T02:32:10.865Z,-0.24
2019-02-16T02:33:10.855Z,-0.34
2019-02-16T02:34:10.844Z,-0.45
2019-02-16T02:35:10.834Z,-0.48
2019-02-16T02:36:10.822Z,-0.29
2019-02-16T02:37:10.808Z,-0.24
2019-02-16T02:38:10.796Z,-0.37
2019-02-16T02:39:10.785Z,-0.26
2019-02-16T02:40:10.772Z,-0.30
2019-02-16T02:41:10.763Z,-0.31
2019-02-16T02:42:10.758Z,-0.30
2019-02-16T02:43:10.741Z,-0.37
2019-02-16T02:44:10.734Z,-0.36
2019-02-16T02:45:10.716Z,-0.30
2019-02-16T02:46:10.706Z,-0.31
2019-02-16T02:47:10.693Z,-0.37
2019-02-16T02:48:10.680Z,-0.41
2019-02-16T02:49:10.671Z,-0.44
2019-02-16T02:50:10.660Z,-0.41
2019-02-16T02:51:10.649Z,-0.55
2019-02-16T02:52:10.636Z,-0.34
2019-02-16T02:53:10.637Z,-0.41
2019-02-16T02:54:10.618Z,-0.52
2019-02-16T02:55:10.606Z,-0.39
2019-02-16T02:56:10.591Z,-0.57
2019-02-16T02:57:10.582Z,-0.54
2019-02-16T02:58:10.558Z,-0.54
2019-02-16T02:59:10.552Z,-0.59
2019-02-16T03:00:10.547Z,-0.57
2019-02-16T03:01:10.533Z,-0.69
2019-02-16T03:02:10.526Z,-0.62
2019-02-16T03:03:10.515Z,-0.62
2019-02-16T03:04:10.489Z,-0.69
2019-02-16T03:05:10.487Z,-0.68
2019-02-16T03:06:10.477Z,-0.75
2019-02-16T03:07:10.465Z,-0.77
2019-02-16T03:08:10.475Z,-0.73
2019-02-16T03:09:10.482Z,-0.77
2019-02-16T03:10:10.431Z,-0.87
2019-02-16T03:11:10.419Z,-0.78
2019-02-16T03:12:10.414Z,-0.86
2019-02-16T03:13:10.398Z,-0.87
2019-02-16T03:14:10.388Z,-0.83
2019-02-16T03:15:10.374Z,-0.86
2019-02-16T03:16:10.365Z,-0.87
2019-02-16T03:17:10.353Z,-0.73
2019-02-16T03:18:10.343Z,-0.73
2019-02-16T03:19:10.332Z,-0.80
2019-02-16T03:20:10.317Z,-0.86
2019-02-16T03:21:10.305Z,-0.87
2019-02-16T03:22:10.291Z,-0.81
2019-02-16T03:23:10.285Z,-0.86
2019-02-16T03:24:10.275Z,-0.84
2019-02-16T03:25:10.260Z,-0.84
2019-02-16T03:26:10.248Z,-0.83
2019-02-16T03:27:10.232Z,-0.75
2019-02-16T03:28:10.224Z,-0.89
2019-02-16T03:29:10.212Z,-0.81
2019-02-16T03:30:10.207Z,-0.83
2019-02-16T03:31:10.201Z,-0.86
2019-02-16T03:32:10.179Z,-0.73
2019-02-16T03:33:10.164Z,-0.73
2019-02-16T03:34:10.165Z,-0.68
2019-02-16T03:35:10.140Z,-0.54
2019-02-16T03:36:10.138Z,-0.60
2019-02-16T03:37:10.127Z,-0.55
2019-02-16T03:38:10.101Z,-0.59
2019-02-16T03:39:10.098Z,-0.50
2019-02-16T03:40:10.086Z,-0.55
2019-02-16T03:41:10.077Z,-0.54
2019-02-16T03:42:10.062Z,-0.59
2019-02-16T03:43:10.049Z,-0.51
2019-02-16T03:44:10.039Z,-0.62
2019-02-16T03:45:10.028Z,-0.70
2019-02-16T03:46:10.016Z,-0.75
2019-02-16T03:47:10.003Z,-0.84
2019-02-16T03:48:09.992Z,-0.84
2019-02-16T03:49:09.981Z,-0.87
2019-02-16T03:50:09.972Z,-0.86
2019-02-16T03:51:09.958Z,-0.73
2019-02-16T03:52:13.936Z,-0.77
2019-02-16T03:53:09.933Z,-0.73
2019-02-16T03:54:09.922Z,-0.72
2019-02-16T03:55:09.911Z,-0.78
2019-02-16T03:56:09.893Z,-0.73
2019-02-16T03:57:09.887Z,-0.73
2019-02-16T03:58:09.878Z,-0.75
2019-02-16T03:59:09.923Z,-0.80
2019-02-16T04:00:09.851Z,-0.75
2019-02-16T04:01:09.839Z,-0.75
2019-02-16T04:02:09.830Z,-0.83
2019-02-16T04:03:09.817Z,-0.87
2019-02-16T04:04:09.808Z,-0.87
2019-02-16T04:05:09.802Z,-0.86
2019-02-16T04:06:09.781Z,-0.91
2019-02-16T04:07:09.771Z,-0.94
2019-02-16T04:08:09.761Z,-0.95
2019-02-16T04:09:09.748Z,-1.05
2019-02-16T04:10:09.735Z,-0.95
2019-02-16T04:11:09.716Z,-0.83
2019-02-16T04:12:09.709Z,-0.87
2019-02-16T04:13:09.698Z,-0.86
2019-02-16T04:14:09.688Z,-0.87
2019-02-16T04:15:09.679Z,-0.87
2019-02-16T04:16:09.673Z,-0.80
2019-02-16T04:17:09.653Z,-0.77
2019-02-16T04:18:09.643Z,-0.73
2019-02-16T04:19:09.640Z,-0.72
2019-02-16T04:20:09.618Z,-0.72
2019-02-16T04:21:09.606Z,-0.75
2019-02-16T04:22:09.583Z,-0.78
2019-02-16T04:23:09.582Z,-0.77
2019-02-16T04:24:09.569Z,-0.77
2019-02-16T04:25:09.564Z,-0.70
2019-02-16T04:26:09.570Z,-0.78
2019-02-16T04:27:09.538Z,-0.77
2019-02-16T04:28:09.525Z,-0.69
2019-02-16T04:29:09.514Z,-0.68
2019-02-16T04:30:09.506Z,-0.65
2019-02-16T04:31:09.489Z,-0.68
2019-02-16T04:32:09.478Z,-0.66
2019-02-16T04:33:09.464Z,-0.73
2019-02-16T04:34:09.455Z,-0.55
2019-02-16T04:35:09.449Z,-0.66
2019-02-16T04:36:09.452Z,-0.77
2019-02-16T04:37:09.410Z,-0.75
2019-02-16T04:38:09.407Z,-0.72
2019-02-16T04:39:09.393Z,-0.70
2019-02-16T04:40:09.384Z,-0.75
2019-02-16T04:41:09.373Z,-0.68
2019-02-16T04:42:09.360Z,-0.77
2019-02-16T04:43:09.355Z,-0.52
2019-02-16T04:44:09.337Z,-0.47
2019-02-16T04:45:09.320Z,-0.52
2019-02-16T04:46:09.310Z,-0.41
2019-02-16T04:47:09.302Z,-0.48
2019-02-16T04:48:09.290Z,-0.54
2019-02-16T04:49:09.286Z,-0.75
2019-02-16T04:50:09.267Z,-0.66
2019-02-16T04:51:09.253Z,-0.75
2019-02-16T04:52:09.252Z,-0.78
2019-02-16T04:53:09.232Z,-0.95
2019-02-16T04:54:09.221Z,-1.06
2019-02-16T04:55:09.209Z,-0.99
2019-02-16T04:56:09.197Z,-1.09
2019-02-16T04:57:09.179Z,-1.25
2019-02-16T04:58:09.202Z,-1.20
2019-02-16T04:59:09.162Z,-1.21
2019-02-16T05:00:09.149Z,-1.21
2019-02-16T05:01:09.137Z,-1.07
2019-02-16T05:02:09.125Z,-0.94
2019-02-16T05:03:09.114Z,-0.95
2019-02-16T05:04:09.102Z,-0.87
2019-02-16T05:05:09.092Z,-0.89
2019-02-16T05:06:09.078Z,-0.94
2019-02-16T05:07:09.063Z,-0.83
2019-02-16T05:08:09.054Z,-0.84
2019-02-16T05:09:09.043Z,-0.81
2019-02-16T05:10:09.033Z,-0.87
2019-02-16T05:11:09.022Z,-1.05
2019-02-16T05:12:09.008Z,-1.03
2019-02-16T05:13:09.004Z,-0.84
2019-02-16T05:14:08.985Z,-0.72
2019-02-16T05:15:08.972Z,-0.72
2019-02-16T05:16:08.960Z,-0.77
2019-02-16T05:17:08.955Z,-0.78
2019-02-16T05:18:08.933Z,-0.80
2019-02-16T05:19:08.920Z,-0.70
2019-02-16T05:20:08.910Z,-0.65
2019-02-16T05:21:08.902Z,-0.54
2019-02-16T05:22:08.895Z,-0.66
2019-02-16T05:23:08.879Z,-0.69
2019-02-16T05:24:08.863Z,-0.68
2019-02-16T05:25:08.858Z,-0.77
2019-02-16T05:26:08.845Z,-0.75
2019-02-16T05:27:08.831Z,-0.75
2019-02-16T05:28:08.823Z,-0.80
2019-02-16T05:29:08.808Z,-0.70
2019-02-16T05:30:08.789Z,-0.63
2019-02-16T05:31:08.783Z,-0.66
2019-02-16T05:32:08.771Z,-0.69
2019-02-16T05:33:08.761Z,-0.73
2019-02-16T05:34:08.747Z,-0.68
2019-02-16T05:35:08.741Z,-0.73
2019-02-16T05:36:08.723Z,-0.72
2019-02-16T05:37:08.714Z,-0.80
2019-02-16T05:38:08.715Z,-0.83
2019-02-16T05:39:08.691Z,-1.00
2019-02-16T05:40:08.681Z,-1.06
2019-02-16T05:41:08.664Z,-0.95
2019-02-16T05:42:08.654Z,-1.09
2019-02-16T05:43:08.642Z,-0.95
2019-02-16T05:44:08.627Z,-1.09
2019-02-16T05:45:08.607Z,-0.94
2019-02-16T05:46:08.605Z,-1.03
2019-02-16T05:47:08.597Z,-0.97
2019-02-16T05:48:08.583Z,-0.94
2019-02-16T05:49:08.577Z,-0.97
2019-02-16T05:50:08.561Z,-1.00
2019-02-16T05:51:08.548Z,-0.99
2019-02-16T05:52:08.533Z,-1.10
2019-02-16T05:53:08.521Z,-1.31
2019-02-16T05:54:08.514Z,-1.25
2019-02-16T05:55:08.497Z,-1.30
2019-02-16T05:56:08.491Z,-1.38
2019-02-16T05:57:08.473Z,-1.51
2019-02-16T05:58:08.460Z,-1.45
2019-02-16T05:59:08.448Z,-1.45
2019-02-16T06:00:08.438Z,-1.39
2019-02-16T06:01:08.434Z,-1.42
2019-02-16T06:02:08.409Z,-1.46
2019-02-16T06:03:08.406Z,-1.38
2019-02-16T06:04:08.391Z,-1.42
2019-02-16T06:05:08.379Z,-1.38
2019-02-16T06:06:08.366Z,-1.45
2019-02-16T06:07:08.358Z,-1.30
2019-02-16T06:08:08.342Z,-1.45
2019-02-16T06:09:08.333Z,-1.42
2019-02-16T06:10:08.319Z,-1.33
2019-02-16T06:11:08.307Z,-1.28
2019-02-16T06:12:08.294Z,-1.31
2019-02-16T06:13:08.284Z,-1.23
2019-02-16T06:14:08.271Z,-1.23
2019-02-16T06:15:08.260Z,-1.12
2019-02-16T06:16:08.246Z,-1.25
2019-02-16T06:17:08.227Z,-1.21
2019-02-16T06:18:08.224Z,-1.24
2019-02-16T06:19:08.210Z,-1.24
2019-02-16T06:20:08.205Z,-1.24
2019-02-16T06:21:08.186Z,-1.23
2019-02-16T06:22:08.179Z,-1.23
2019-02-16T06:23:08.163Z,-1.09
2019-02-16T06:24:08.151Z,-1.18
2019-02-16T06:25:08.138Z,-1.17
2019-02-16T06:26:08.128Z,-1.18
2019-02-16T06:27:08.118Z,-1.07
2019-02-16T06:28:08.104Z,-1.18
2019-02-16T06:29:08.100Z,-1.13
2019-02-16T06:30:08.079Z,-1.07
2019-02-16T06:31:08.074Z,-1.05
2019-02-16T06:32:08.057Z,-0.97
2019-02-16T06:33:08.059Z,-1.00
2019-02-16T06:34:08.031Z,-0.95
2019-02-16T06:35:08.015Z,-0.92
2019-02-16T06:36:08.007Z,-0.83
2019-02-16T06:37:08.013Z,-0.77
2019-02-16T06:38:07.984Z,-0.69
2019-02-16T06:39:07.971Z,-0.45
2019-02-16T06:40:07.958Z,-0.31
2019-02-16T06:41:07.951Z,-0.16
2019-02-16T06:42:07.926Z,-0.09
2019-02-16T06:43:07.927Z,0.20
2019-02-16T06:44:07.913Z,0.30
2019-02-16T06:45:07.902Z,0.43
2019-02-16T06:46:07.892Z,0.58
2019-02-16T06:47:07.884Z,0.64
2019-02-16T06:48:07.866Z,0.83
2019-02-16T06:49:07.848Z,1.03
2019-02-16T06:50:07.844Z,1.21
2019-02-16T06:51:07.831Z,1.14
2019-02-16T06:52:07.829Z,1.18
2019-02-16T06:53:13.239Z,1.28
2019-02-16T06:54:07.803Z,1.36
2019-02-16T06:55:07.809Z,1.42
2019-02-16T06:56:07.779Z,1.46
2019-02-16T06:57:07.768Z,1.40
2019-02-16T06:58:07.759Z,1.47
2019-02-16T06:59:07.747Z,1.58
2019-02-16T07:00:07.737Z,1.76
2019-02-16T07:01:07.741Z,2.16
2019-02-16T07:02:07.720Z,2.41
2019-02-16T07:03:07.705Z,2.69
2019-02-16T07:04:07.700Z,3.03
2019-02-16T07:05:07.686Z,3.23
2019-02-16T07:06:07.682Z,3.53
2019-02-16T07:07:07.681Z,3.85
2019-02-16T07:08:07.657Z,4.01
2019-02-16T07:09:07.650Z,4.24
2019-02-16T07:10:07.653Z,4.34
2019-02-16T07:11:07.648Z,4.44
2019-02-16T07:12:07.655Z,4.59
2019-02-16T07:13:07.616Z,4.86
2019-02-16T07:14:07.602Z,5.05
2019-02-16T07:15:07.602Z,5.30
2019-02-16T07:16:07.586Z,5.10
2019-02-16T07:17:07.584Z,5.34
2019-02-16T07:18:07.588Z,5.45
2019-02-16T07:19:07.554Z,5.71
2019-02-16T07:20:07.989Z,5.92
2019-02-16T07:21:07.549Z,6.14
2019-02-16T07:22:07.543Z,6.29
2019-02-16T07:23:07.535Z,6.50
2019-02-16T07:24:07.525Z,6.19
2019-02-16T07:25:07.525Z,6.14
2019-02-16T07:26:07.522Z,6.43
2019-02-16T07:27:07.508Z,6.43
2019-02-16T07:28:07.503Z,6.56
2019-02-16T07:29:07.497Z,6.91
2019-02-16T07:30:07.499Z,7.20
2019-02-16T07:31:07.476Z,7.50
2019-02-16T07:32:07.478Z,8.11
2019-02-16T07:33:07.474Z,8.66
2019-02-16T07:34:07.476Z,9.28
2019-02-16T07:35:07.463Z,9.58
2019-02-16T07:36:07.458Z,9.75
2019-02-16T07:37:07.448Z,10.06
2019-02-16T07:38:07.443Z,10.60
2019-02-16T07:39:07.433Z,10.94
2019-02-16T07:40:07.454Z,11.19
2019-02-16T07:41:07.435Z,11.57
2019-02-16T07:42:07.439Z,12.04
2019-02-16T07:43:07.427Z,12.27
2019-02-16T07:44:07.422Z,12.54
2019-02-16T07:45:07.410Z,12.85
2019-02-16T07:46:07.415Z,12.97
2019-02-16T07:47:07.408Z,13.25
2019-02-16T07:48:07.399Z,13.33
2019-02-16T07:49:07.393Z,13.54
2019-02-16T07:50:07.397Z,13.89
2019-02-16T07:51:07.398Z,14.16
2019-02-16T07:52:07.395Z,14.43
2019-02-16T07:53:07.390Z,14.20
2019-02-16T07:54:07.385Z,14.56
2019-02-16T07:55:07.380Z,14.78
2019-02-16T07:56:07.372Z,15.06
2019-02-16T07:57:07.375Z,15.12
2019-02-16T07:58:07.360Z,15.60
2019-02-16T07:59:07.368Z,15.76
2019-02-16T08:00:07.360Z,15.23
2019-02-16T08:01:07.362Z,14.99
2019-02-16T08:02:07.354Z,14.31
2019-02-16T08:03:07.359Z,13.96
2019-02-16T08:04:07.357Z,13.65
2019-02-16T08:05:07.357Z,13.21
2019-02-16T08:06:07.354Z,12.15
2019-02-16T08:07:07.350Z,11.43
2019-02-16T08:08:07.348Z,11.50
2019-02-16T08:09:07.354Z,10.92
2019-02-16T08:10:07.337Z,10.47
2019-02-16T08:11:07.423Z,10.51
2019-02-16T08:12:07.344Z,10.24
2019-02-16T08:13:07.340Z,10.32
2019-02-16T08:14:07.337Z,10.40
2019-02-16T08:15:07.348Z,10.06
2019-02-16T08:16:07.334Z,9.86
2019-02-16T08:17:07.334Z,9.99
2019-02-16T08:18:07.334Z,10.70
2019-02-16T08:19:07.327Z,10.70
2019-02-16T08:20:07.328Z,11.32
2019-02-16T08:21:07.328Z,11.97
2019-02-16T08:22:07.318Z,12.04
2019-02-16T08:23:07.317Z,11.94
2019-02-16T08:24:07.324Z,12.84
2019-02-16T08:25:07.320Z,13.41
2019-02-16T08:26:07.315Z,13.07
2019-02-16T08:27:07.328Z,13.04
2019-02-16T08:28:07.326Z,12.97
2019-02-16T08:29:07.332Z,13.69
2019-02-16T08:30:07.324Z,14.12
2019-02-16T08:31:07.344Z,13.63
2019-02-16T08:32:07.321Z,13.71
2019-02-16T08:33:07.321Z,13.88
2019-02-16T08:34:07.322Z,13.67
2019-02-16T08:35:07.371Z,13.58
2019-02-16T08:36:07.326Z,13.52
2019-02-16T08:37:07.321Z,13.80
2019-02-16T08:38:07.317Z,13.88
2019-02-16T08:39:07.324Z,14.29
2019-02-16T08:40:07.323Z,14.27
2019-02-16T08:41:07.330Z,13.95
2019-02-16T08:42:07.330Z,13.54
2019-02-16T08:43:07.353Z,13.43
2019-02-16T08:44:07.331Z,13.32
2019-02-16T08:45:07.337Z,13.69
2019-02-16T08:46:07.335Z,13.79
2019-02-16T08:47:07.337Z,14.06
2019-02-16T08:48:07.397Z,13.79
2019-02-16T08:49:07.339Z,13.21
2019-02-16T08:50:07.417Z,13.25
2019-02-16T08:51:07.343Z,13.21
2019-02-16T08:52:07.345Z,13.30
2019-02-16T08:53:07.347Z,13.38
2019-02-16T08:54:07.343Z,13.37
2019-02-16T08:55:07.350Z,13.07
2019-02-16T08:56:07.357Z,12.78
2019-02-16T08:57:07.345Z,13.76
2019-02-16T08:58:07.348Z,14.16
2019-02-16T08:59:07.355Z,14.17
2019-02-16T09:00:07.366Z,13.59
2019-02-16T09:01:07.370Z,13.95
2019-02-16T09:02:07.361Z,14.42
2019-02-16T09:03:07.382Z,15.28
2019-02-16T09:04:07.363Z,16.20
2019-02-16T09:05:07.369Z,16.75
2019-02-16T09:06:07.377Z,17.71
2019-02-16T09:07:07.374Z,18.19
2019-02-16T09:08:07.429Z,18.24
2019-02-16T09:09:07.384Z,18.61
2019-02-16T09:10:07.382Z,19.11
2019-02-16T09:11:07.385Z,19.35
2019-02-16T09:12:07.386Z,19.40
2019-02-16T09:13:07.384Z,19.57
2019-02-16T09:14:07.399Z,19.55
2019-02-16T09:15:07.390Z,18.54
2019-02-16T09:16:07.402Z,17.67
2019-02-16T09:17:07.396Z,17.46
2019-02-16T09:18:07.405Z,16.95
2019-02-16T09:19:07.414Z,16.58
2019-02-16T09:20:07.419Z,16.23
2019-02-16T09:21:14.444Z,16.00
2019-02-16T09:22:07.422Z,16.12
2019-02-16T09:23:07.420Z,15.67
2019-02-16T09:24:07.432Z,15.68
2019-02-16T09:25:07.435Z,15.85
2019-02-16T09:26:07.435Z,16.16
2019-02-16T09:27:07.439Z,15.52
2019-02-16T09:28:07.447Z,15.12
2019-02-16T09:29:07.453Z,15.35
2019-02-16T09:30:07.457Z,14.91
2019-02-16T09:31:07.454Z,14.28
2019-02-16T09:32:07.466Z,14.29
2019-02-16T09:33:07.470Z,14.52
2019-02-16T09:34:07.472Z,14.83
2019-02-16T09:35:07.475Z,14.53
2019-02-16T09:36:07.475Z,14.65
2019-02-16T09:37:07.507Z,14.24
2019-02-16T09:38:07.495Z,14.21
2019-02-16T09:39:07.491Z,14.32
2019-02-16T09:40:07.496Z,14.39
2019-02-16T09:41:07.535Z,14.84
2019-02-16T09:42:07.505Z,14.62
2019-02-16T09:43:07.508Z,14.99
2019-02-16T09:44:07.529Z,14.98
2019-02-16T09:45:07.521Z,15.39
2019-02-16T09:46:07.521Z,15.06
2019-02-16T09:47:07.525Z,14.90
2019-02-16T09:48:07.551Z,15.30
2019-02-16T09:49:07.526Z,16.15
2019-02-16T09:50:07.540Z,15.66
2019-02-16T09:51:07.541Z,14.99
2019-02-16T09:52:07.546Z,15.94
2019-02-16T09:53:07.548Z,16.49
2019-02-16T09:54:08.633Z,16.63
2019-02-16T09:55:07.558Z,16.92
2019-02-16T09:56:07.562Z,16.56
2019-02-16T09:57:07.581Z,16.03
2019-02-16T09:58:07.573Z,15.92
2019-02-16T09:59:07.567Z,16.30
2019-02-16T10:00:07.580Z,16.42
2019-02-16T10:01:07.585Z,15.64
2019-02-16T10:02:07.616Z,15.45
2019-02-16T10:03:07.597Z,15.28
2019-02-16T10:04:07.595Z,15.72
2019-02-16T10:05:07.603Z,16.00
2019-02-16T10:06:07.607Z,15.94
2019-02-16T10:07:07.614Z,16.48
2019-02-16T10:08:07.618Z,16.12
2019-02-16T10:09:07.620Z,15.35
2019-02-16T10:10:07.628Z,16.41
2019-02-16T10:11:07.668Z,17.20
2019-02-16T10:12:07.636Z,17.36
2019-02-16T10:13:07.650Z,17.00
2019-02-16T10:14:07.672Z,16.58
2019-02-16T10:15:07.648Z,16.56
2019-02-16T10:16:07.655Z,17.00
2019-02-16T10:17:07.666Z,17.25
2019-02-16T10:18:07.681Z,17.40
2019-02-16T10:19:07.685Z,16.23
2019-02-16T10:20:07.675Z,15.96
2019-02-16T10:21:07.695Z,16.37
2019-02-16T10:22:07.684Z,17.00
2019-02-16T10:23:07.690Z,16.18
2019-02-16T10:24:07.684Z,15.38
2019-02-16T10:25:07.710Z,15.38
2019-02-16T10:26:07.704Z,16.25
2019-02-16T10:27:07.758Z,16.45
2019-02-16T10:28:07.715Z,16.49
2019-02-16T10:29:07.719Z,15.70
2019-02-16T10:30:07.725Z,15.51
2019-02-16T10:31:07.729Z,16.59
2019-02-16T10:32:07.736Z,17.15
2019-02-16T10:33:07.743Z,17.66
2019-02-16T10:34:07.748Z,17.08
2019-02-16T10:35:07.750Z,16.34
2019-02-16T10:36:07.756Z,15.41
2019-02-16T10:37:07.759Z,15.28
2019-02-16T10:38:07.766Z,16.85
2019-02-16T10:39:07.769Z,17.17
2019-02-16T10:40:07.771Z,17.57
2019-02-16T10:41:07.827Z,17.78
2019-02-16T10:42:07.779Z,18.65
2019-02-16T10:43:07.786Z,18.12
2019-02-16T10:44:07.796Z,17.91
2019-02-16T10:45:07.799Z,17.79
2019-02-16T10:46:07.807Z,17.91
2019-02-16T10:47:07.814Z,17.00
2019-02-16T10:48:07.813Z,17.46
2019-02-16T10:49:07.821Z,18.17
2019-02-16T10:50:07.830Z,18.17
2019-02-16T10:51:07.875Z,18.09
2019-02-16T10:52:07.851Z,17.91
2019-02-16T10:53:07.883Z,17.50
2019-02-16T10:54:07.855Z,17.14
2019-02-16T10:55:07.849Z,17.00
2019-02-16T10:56:07.847Z,17.17
2019-02-16T10:57:07.859Z,17.20
2019-02-16T10:58:07.868Z,17.22
2019-02-16T10:59:07.868Z,17.74
2019-02-16T11:00:07.881Z,17.00
2019-02-16T11:01:07.874Z,17.08
2019-02-16T11:02:07.890Z,17.74
2019-02-16T11:03:07.892Z,17.76
2019-02-16T11:04:07.897Z,18.17
2019-02-16T11:05:07.905Z,17.89
2019-02-16T11:06:07.902Z,17.66
2019-02-16T11:07:07.908Z,17.99
2019-02-16T11:08:07.919Z,17.47
2019-02-16T11:09:07.920Z,16.75
2019-02-16T11:10:07.926Z,16.80
2019-02-16T11:11:07.930Z,16.52
2019-02-16T11:12:07.929Z,16.45
2019-02-16T11:13:07.962Z,16.62
2019-02-16T11:14:07.949Z,17.08
2019-02-16T11:15:07.954Z,17.89
2019-02-16T11:16:07.969Z,16.88
2019-02-16T11:17:07.959Z,16.67
2019-02-16T11:18:07.970Z,16.95
2019-02-16T11:19:07.975Z,16.90
2019-02-16T11:20:07.976Z,17.17
2019-02-16T11:21:07.985Z,17.64
2019-02-16T11:22:07.999Z,16.67
2019-02-16T11:23:07.993Z,16.89
2019-02-16T11:24:08.004Z,17.33
2019-02-16T11:25:08.012Z,16.80
2019-02-16T11:26:08.010Z,16.62
2019-02-16T11:27:08.014Z,16.55
2019-02-16T11:28:08.021Z,17.25
2019-02-16T11:29:08.024Z,17.23
2019-02-16T11:30:08.252Z,17.41
2019-02-16T11:31:08.099Z,18.52
2019-02-16T11:32:08.039Z,18.95
2019-02-16T11:33:08.042Z,18.83
2019-02-16T11:34:08.080Z,18.39
2019-02-16T11:35:08.127Z,17.30
2019-02-16T11:36:08.063Z,17.28
2019-02-16T11:37:08.062Z,17.48
2019-02-16T11:38:08.069Z,17.38
2019-02-16T11:39:08.070Z,17.17
2019-02-16T11:40:08.081Z,17.41
2019-02-16T11:41:08.893Z,17.08
2019-02-16T11:42:08.087Z,16.99
2019-02-16T11:43:08.095Z,16.85
2019-02-16T11:44:08.098Z,17.14
2019-02-16T11:45:08.113Z,16.68
2019-02-16T11:46:08.109Z,16.99
2019-02-16T11:47:08.115Z,16.75
2019-02-16T11:48:08.119Z,16.88
2019-02-16T11:49:08.128Z,17.14
2019-02-16T11:50:08.126Z,17.59
2019-02-16T11:51:08.133Z,17.46
2019-02-16T11:52:08.141Z,18.43
2019-02-16T11:53:08.148Z,18.54
2019-02-16T11:54:08.135Z,18.12
2019-02-16T11:55:08.152Z,18.65
2019-02-16T11:56:08.153Z,19.31
2019-02-16T11:57:08.152Z,19.70
2019-02-16T11:58:08.165Z,19.14
2019-02-16T11:59:08.163Z,19.14
2019-02-16T12:00:08.185Z,19.48
2019-02-16T12:01:08.179Z,19.17
2019-02-16T12:02:08.185Z,19.47
2019-02-16T12:03:08.181Z,19.50
2019-02-16T12:04:08.187Z,18.50
2019-02-16T12:05:08.200Z,18.65
2019-02-16T12:06:08.201Z,18.39
2019-02-16T12:07:08.207Z,18.83
2019-02-16T12:08:08.210Z,19.46
2019-02-16T12:09:08.224Z,19.57
2019-02-16T12:10:08.220Z,19.78
2019-02-16T12:11:08.227Z,18.97
2019-02-16T12:12:08.225Z,18.47
2019-02-16T12:13:08.234Z,19.02
2019-02-16T12:14:08.245Z,18.86
2019-02-16T12:15:08.247Z,18.76
2019-02-16T12:16:08.257Z,18.07
2019-02-16T12:17:08.275Z,18.67
2019-02-16T12:18:08.287Z,18.73
2019-02-16T12:19:08.261Z,19.65
2019-02-16T12:20:08.266Z,19.79
2019-02-16T12:21:09.669Z,19.83
2019-02-16T12:22:08.289Z,19.70
2019-02-16T12:23:09.333Z,19.25
2019-02-16T12:24:08.282Z,19.17
2019-02-16T12:25:08.289Z,19.01
2019-02-16T12:26:08.293Z,19.15
2019-02-16T12:27:08.293Z,19.36
2019-02-16T12:28:08.289Z,19.97
2019-02-16T12:29:08.307Z,19.29
2019-02-16T12:30:08.310Z,19.20
2019-02-16T12:31:08.318Z,19.46
2019-02-16T12:32:08.322Z,19.42
2019-02-16T12:33:08.322Z,19.33
2019-02-16T12:34:08.323Z,20.02
2019-02-16T12:35:08.334Z,20.16
2019-02-16T12:36:08.335Z,20.54
2019-02-16T12:37:08.341Z,19.88
2019-02-16T12:38:08.344Z,19.69
2019-02-16T12:39:08.348Z,19.70
2019-02-16T12:40:08.355Z,20.05
2019-02-16T12:41:08.345Z,20.06
2019-02-16T12:42:08.367Z,19.20
2019-02-16T12:43:08.356Z,18.47
2019-02-16T12:44:08.367Z,17.51
2019-02-16T12:45:08.385Z,16.62
2019-02-16T12:46:08.372Z,15.81
2019-02-16T12:47:08.378Z,15.54
2019-02-16T12:48:08.384Z,15.49
2019-02-16T12:49:08.385Z,15.46
2019-02-16T12:50:08.389Z,15.21
2019-02-16T12:51:08.391Z,15.12
2019-02-16T12:52:08.392Z,14.91
2019-02-16T12:53:08.398Z,14.78
2019-02-16T12:54:08.416Z,14.75
2019-02-16T12:55:14.486Z,14.44
2019-02-16T12:56:08.401Z,14.14
2019-02-16T12:57:08.403Z,14.13
2019-02-16T12:58:08.403Z,14.06